createdAt,value
2022-11-29T00:00:02.752Z,1.50
2022-11-29T00:02:37.726Z,1.80
2022-11-29T00:05:05.509Z,1.60
2022-11-29T00:07:34.320Z,1.07
2022-11-29T00:10:11.285Z,2.27
2022-11-29T00:12:42.909Z,1.20
2022-11-29T00:15:10.412Z,2.10
2022-11-29T00:17:44.078Z,1.53
2022-11-29T00:20:12.149Z,2.30
2022-11-29T00:22:54.067Z,1.67
2022-11-29T00:25:21.427Z,1.43
2022-11-29T00:27:51.635Z,3.63
2022-11-29T00:30:27.269Z,3.67
2022-11-29T00:32:59.216Z,3.47
2022-11-29T00:35:26.777Z,1.43
2022-11-29T00:38:00.276Z,1.03
2022-11-29T00:40:27.636Z,1.30
2022-11-29T00:42:55.065Z,1.20
2022-11-29T00:45:30.974Z,1.10
2022-11-29T00:47:58.383Z,1.67
2022-11-29T00:50:28.735Z,0.97
2022-11-29T00:53:02.982Z,1.93
2022-11-29T00:55:30.421Z,1.07
2022-11-29T00:57:57.718Z,1.30
2022-11-29T01:00:31.977Z,0.90
2022-11-29T01:02:59.307Z,1.07
2022-11-29T01:05:26.738Z,1.30
2022-11-29T01:08:00.985Z,1.03
2022-11-29T01:10:28.780Z,1.60
2022-11-29T01:12:56.434Z,1.00
2022-11-29T01:15:30.971Z,1.30
2022-11-29T01:17:58.485Z,1.00
2022-11-29T01:20:26.368Z,0.90
2022-11-29T01:23:01.076Z,2.20
2022-11-29T01:25:29.676Z,1.10
2022-11-29T01:27:57.028Z,1.57
2022-11-29T01:30:33.944Z,0.80
2022-11-29T01:33:01.377Z,1.50
2022-11-29T01:35:28.751Z,0.60
2022-11-29T01:38:02.841Z,2.23
2022-11-29T01:40:30.199Z,1.23
2022-11-29T01:42:57.573Z,0.80
2022-11-29T01:45:32.903Z,0.77
2022-11-29T01:48:00.981Z,0.87
2022-11-29T01:50:28.456Z,0.67
2022-11-29T01:53:01.850Z,0.70
2022-11-29T01:55:29.303Z,0.87
2022-11-29T01:57:56.670Z,0.70
2022-11-29T02:00:30.864Z,1.03
2022-11-29T02:03:09.325Z,1.60
2022-11-29T02:05:46.613Z,1.23
2022-11-29T02:08:23.227Z,1.43
2022-11-29T02:11:19.965Z,0.90
2022-11-29T02:14:24.816Z,0.80
2022-11-29T02:17:31.900Z,0.70
2022-11-29T02:20:36.905Z,2.57
2022-11-29T02:23:20.147Z,1.63
2022-11-29T02:26:00.007Z,1.87
2022-11-29T02:29:09.901Z,1.27
2022-11-29T02:32:04.852Z,1.10
2022-11-29T02:35:02.907Z,0.90
2022-11-29T02:37:51.996Z,1.20
2022-11-29T02:40:39.921Z,2.27
2022-11-29T02:43:25.841Z,1.03
2022-11-29T02:46:27.960Z,1.40
2022-11-29T02:49:11.716Z,1.77
2022-11-29T02:52:13.176Z,1.20
2022-11-29T02:54:54.816Z,1.67
2022-11-29T02:57:57.191Z,1.00
2022-11-29T03:00:25.032Z,1.17
2022-11-29T03:02:52.434Z,1.03
2022-11-29T03:05:57.207Z,0.83
2022-11-29T03:09:09.470Z,2.83
2022-11-29T03:12:14.854Z,1.03
2022-11-29T03:15:04.566Z,1.80
2022-11-29T03:18:02.407Z,2.00
2022-11-29T03:20:46.041Z,1.00
2022-11-29T03:23:45.895Z,0.73
2022-11-29T03:26:51.426Z,0.80
2022-11-29T03:30:10.249Z,0.70
2022-11-29T03:33:12.492Z,3.07
2022-11-29T03:36:02.392Z,0.93
2022-11-29T03:38:45.932Z,0.57
2022-11-29T03:41:32.348Z,0.83
2022-11-29T03:44:22.639Z,3.03
2022-11-29T03:47:03.399Z,0.90
2022-11-29T03:49:40.110Z,1.03
2022-11-29T03:52:38.418Z,1.20
2022-11-29T03:55:48.648Z,0.73
2022-11-29T03:58:44.417Z,1.67
2022-11-29T04:01:33.394Z,1.33
2022-11-29T04:04:31.387Z,1.17
2022-11-29T04:07:20.387Z,1.23
2022-11-29T04:10:00.387Z,1.97
2022-11-29T04:13:05.669Z,1.00
2022-11-29T04:16:17.473Z,1.20
2022-11-29T04:19:30.957Z,0.97
2022-11-29T04:22:18.914Z,0.90
2022-11-29T04:25:14.205Z,1.37
2022-11-29T04:28:14.939Z,0.93
2022-11-29T04:31:00.775Z,1.10
2022-11-29T04:33:48.742Z,1.20
2022-11-29T04:36:37.802Z,0.80
2022-11-29T04:39:49.752Z,0.83
2022-11-29T04:42:42.254Z,0.70
2022-11-29T04:45:57.856Z,0.83
2022-11-29T04:48:58.911Z,0.70
2022-11-29T04:51:56.930Z,0.57
2022-11-29T04:54:37.701Z,1.20
2022-11-29T04:57:20.912Z,0.97
2022-11-29T05:00:07.086Z,0.70
2022-11-29T05:02:49.982Z,0.60
2022-11-29T05:05:40.198Z,0.80
2022-11-29T05:08:23.938Z,0.70
2022-11-29T05:11:09.859Z,1.83
2022-11-29T05:13:55.950Z,1.13
2022-11-29T05:16:48.374Z,1.00
2022-11-29T05:19:45.133Z,1.07
2022-11-29T05:22:37.211Z,1.33
2022-11-29T05:25:22.117Z,0.97
2022-11-29T05:28:10.391Z,1.03
2022-11-29T05:31:10.283Z,1.57
2022-11-29T05:33:59.139Z,2.13
2022-11-29T05:36:58.259Z,1.57
2022-11-29T05:39:53.419Z,1.20
2022-11-29T05:42:57.312Z,1.33
2022-11-29T05:45:35.106Z,1.97
2022-11-29T05:48:25.230Z,1.53
2022-11-29T05:51:06.246Z,2.30
2022-11-29T05:54:37.246Z,2.33
2022-11-29T05:57:07.680Z,2.07
2022-11-29T05:59:47.301Z,1.17
2022-11-29T06:02:33.551Z,1.53
2022-11-29T06:05:18.388Z,1.27
2022-11-29T06:08:14.116Z,4.63
2022-11-29T06:11:03.341Z,3.30
2022-11-29T06:14:02.839Z,1.87
2022-11-29T06:16:47.284Z,1.97
2022-11-29T06:19:56.435Z,2.33
2022-11-29T06:22:49.480Z,1.57
2022-11-29T06:25:53.426Z,1.10
2022-11-29T06:29:00.987Z,1.33
2022-11-29T06:31:39.581Z,1.40
2022-11-29T06:34:17.204Z,2.00
2022-11-29T06:37:02.719Z,2.17
2022-11-29T06:39:36.968Z,1.67
2022-11-29T06:42:04.428Z,1.10
2022-11-29T06:44:32.144Z,0.87
2022-11-29T06:47:31.926Z,1.67
2022-11-29T06:50:07.084Z,0.90
2022-11-29T06:53:35.997Z,0.90
2022-11-29T06:56:15.428Z,1.10
2022-11-29T06:59:09.007Z,1.27
2022-11-29T07:01:39.944Z,1.20
2022-11-29T07:04:52.465Z,1.10
2022-11-29T07:07:22.532Z,2.50
2022-11-29T07:10:08.288Z,2.17
2022-11-29T07:12:45.321Z,1.20
2022-11-29T07:15:28.724Z,1.63
2022-11-29T07:18:17.829Z,1.00
2022-11-29T07:21:21.926Z,3.40
2022-11-29T07:24:11.259Z,1.67
2022-11-29T07:26:59.469Z,1.23
2022-11-29T07:29:48.645Z,0.83
2022-11-29T07:32:45.938Z,0.80
2022-11-29T07:35:28.498Z,1.07
2022-11-29T07:38:22.670Z,1.20
2022-11-29T07:41:18.687Z,2.40
2022-11-29T07:44:21.791Z,3.13
2022-11-29T07:46:49.400Z,2.50
2022-11-29T07:49:16.845Z,2.40
2022-11-29T07:51:51.852Z,1.10
2022-11-29T07:54:20.340Z,1.30
2022-11-29T07:56:47.815Z,1.57
2022-11-29T07:59:21.689Z,2.10
2022-11-29T08:01:52.061Z,2.07
2022-11-29T08:04:22.240Z,1.80
2022-11-29T08:06:58.391Z,1.20
2022-11-29T08:09:28.423Z,2.03
2022-11-29T08:11:56.212Z,1.27
2022-11-29T08:14:31.420Z,1.60
2022-11-29T08:16:58.778Z,2.83
2022-11-29T08:19:26.173Z,1.57
2022-11-29T08:22:00.464Z,2.43
2022-11-29T08:24:34.534Z,1.10
2022-11-29T08:27:08.416Z,1.70
2022-11-29T08:29:35.874Z,1.10
2022-11-29T08:32:03.705Z,1.40
2022-11-29T08:34:37.459Z,1.40
2022-11-29T08:37:04.841Z,1.53
2022-11-29T08:39:36.476Z,1.80
2022-11-29T08:42:10.551Z,1.93
2022-11-29T08:44:38.033Z,2.43
2022-11-29T08:47:30.651Z,1.60
2022-11-29T08:50:04.477Z,0.90
2022-11-29T08:53:01.559Z,1.17
2022-11-29T08:55:33.045Z,1.10
2022-11-29T08:58:19.551Z,2.87
2022-11-29T09:00:47.233Z,1.30
2022-11-29T09:03:39.687Z,1.20
2022-11-29T09:06:15.422Z,1.20
2022-11-29T09:08:51.769Z,1.13
2022-11-29T09:11:23.954Z,1.23
2022-11-29T09:14:01.037Z,1.47
2022-11-29T09:16:37.703Z,1.30
2022-11-29T09:19:12.034Z,1.47
2022-11-29T09:21:39.419Z,1.60
2022-11-29T09:24:19.993Z,3.53
2022-11-29T09:26:50.725Z,2.03
2022-11-29T09:29:20.862Z,8.87
2022-11-29T09:31:54.959Z,2.00
2022-11-29T09:34:22.448Z,6.43
2022-11-29T09:36:50.006Z,11.07
2022-11-29T09:39:23.814Z,4.20
2022-11-29T09:42:17.799Z,7.67
2022-11-29T09:45:15.816Z,7.63
2022-11-29T09:48:18.586Z,40.50
2022-11-29T09:51:14.827Z,61.47
2022-11-29T09:54:05.543Z,88.27
2022-11-29T09:56:52.898Z,258.40
2022-11-29T09:59:43.581Z,270.37
2022-11-29T10:02:26.893Z,195.53
2022-11-29T10:05:06.109Z,241.30
2022-11-29T10:07:53.056Z,253.23
2022-11-29T10:10:33.724Z,162.93
2022-11-29T10:13:23.837Z,87.77
2022-11-29T10:15:59.138Z,75.70
2022-11-29T10:18:41.468Z,102.03
2022-11-29T10:21:18.980Z,93.20
2022-11-29T10:24:16.445Z,65.23
2022-11-29T10:26:44.090Z,23.90
2022-11-29T10:29:23.536Z,5.53
2022-11-29T10:31:55.089Z,8.97
2022-11-29T10:34:31.497Z,4.37
2022-11-29T10:37:02.378Z,4.40
2022-11-29T10:39:59.484Z,5.27
2022-11-29T10:42:47.240Z,3.87
2022-11-29T10:45:46.201Z,4.07
2022-11-29T10:48:17.568Z,4.23
2022-11-29T10:50:56.184Z,3.83
2022-11-29T10:53:31.760Z,2.53
2022-11-29T10:56:28.582Z,2.43
2022-11-29T10:59:05.658Z,3.30
2022-11-29T11:01:45.418Z,2.20
2022-11-29T11:04:24.407Z,3.37
2022-11-29T11:07:03.405Z,1.90
2022-11-29T11:09:40.031Z,3.10
2022-11-29T11:12:23.356Z,1.67
2022-11-29T11:14:51.575Z,1.70
2022-11-29T11:17:38.404Z,1.50
2022-11-29T11:20:22.157Z,1.77
2022-11-29T11:23:27.392Z,1.57
2022-11-29T11:26:10.480Z,1.57
2022-11-29T11:29:01.379Z,2.37
2022-11-29T11:31:32.807Z,2.00
2022-11-29T11:34:40.631Z,2.33
2022-11-29T11:37:21.623Z,2.73
2022-11-29T11:39:58.923Z,2.33
2022-11-29T11:42:39.390Z,2.30
2022-11-29T11:45:19.445Z,3.53
2022-11-29T11:47:59.532Z,24.30
2022-11-29T11:50:46.399Z,8.30
2022-11-29T11:53:23.868Z,24.53
2022-11-29T11:56:06.524Z,28.27
2022-11-29T11:58:52.454Z,20.47
2022-11-29T12:01:45.654Z,7.33
2022-11-29T12:04:35.853Z,55.10
2022-11-29T12:08:06.843Z,33.10
2022-11-29T12:10:32.408Z,31.50
2022-11-29T12:13:07.745Z,33.90
2022-11-29T12:15:41.039Z,83.87
2022-11-29T12:18:26.435Z,37.03
2022-11-29T12:21:13.198Z,17.90
2022-11-29T12:24:10.461Z,15.23
2022-11-29T12:26:57.136Z,76.87
2022-11-29T12:29:35.958Z,70.10
2022-11-29T12:32:32.767Z,27.50
2022-11-29T12:35:18.804Z,5.77
2022-11-29T12:38:22.283Z,40.93
2022-11-29T12:41:24.601Z,11.70
2022-11-29T12:44:10.328Z,11.43
2022-11-29T12:46:45.854Z,11.23
2022-11-29T12:49:28.790Z,10.90
2022-11-29T12:52:25.815Z,5.57
2022-11-29T12:55:12.849Z,6.90
2022-11-29T12:58:01.712Z,6.20
2022-11-29T13:00:42.205Z,6.50
2022-11-29T13:03:35.681Z,6.30
2022-11-29T13:06:38.306Z,5.47
2022-11-29T13:09:51.345Z,7.40
2022-11-29T13:12:41.688Z,12.73
2022-11-29T13:15:26.449Z,8.87
2022-11-29T13:18:25.502Z,4.60
2022-11-29T13:21:05.417Z,5.70
2022-11-29T13:24:28.646Z,5.03
2022-11-29T13:27:04.542Z,12.33
2022-11-29T13:29:33.637Z,13.67
2022-11-29T13:32:34.082Z,10.63
2022-11-29T13:35:19.175Z,29.40
2022-11-29T13:38:04.250Z,48.57
2022-11-29T13:40:48.758Z,193.00
2022-11-29T13:43:51.805Z,166.73
2022-11-29T13:47:04.418Z,206.60
2022-11-29T13:50:04.441Z,164.10
2022-11-29T13:52:47.265Z,128.00
2022-11-29T13:55:21.551Z,221.50
2022-11-29T13:58:16.352Z,96.90
2022-11-29T14:00:50.506Z,140.13
2022-11-29T14:03:23.908Z,22.27
2022-11-29T14:06:10.289Z,8.67
2022-11-29T14:09:22.450Z,8.03
2022-11-29T14:12:30.848Z,12.13
2022-11-29T14:15:11.040Z,8.63
2022-11-29T14:18:03.379Z,10.17
2022-11-29T14:20:44.189Z,11.10
2022-11-29T14:23:49.306Z,9.77
2022-11-29T14:26:28.335Z,11.73
2022-11-29T14:29:03.315Z,10.07
2022-11-29T14:31:50.918Z,11.07
2022-11-29T14:34:33.412Z,12.80
2022-11-29T14:37:14.611Z,10.97
2022-11-29T14:39:55.349Z,12.47
2022-11-29T14:42:31.185Z,13.23
2022-11-29T14:45:08.292Z,16.43
2022-11-29T14:47:38.988Z,33.80
2022-11-29T14:50:17.310Z,16.70
2022-11-29T14:52:56.760Z,23.57
2022-11-29T14:55:33.326Z,54.70
2022-11-29T14:58:06.437Z,73.20
2022-11-29T15:00:49.902Z,96.80
2022-11-29T15:03:26.447Z,59.40
2022-11-29T15:06:21.921Z,150.23
2022-11-29T15:09:05.991Z,23.50
2022-11-29T15:12:14.945Z,55.00
2022-11-29T15:15:10.043Z,171.67
2022-11-29T15:18:23.916Z,226.77
2022-11-29T15:21:08.883Z,137.30
2022-11-29T15:23:58.083Z,532.90
2022-11-29T15:26:32.670Z,579.00
2022-11-29T15:29:26.249Z,395.93
2022-11-29T15:32:07.802Z,193.07
2022-11-29T15:34:50.259Z,287.27
2022-11-29T15:37:46.582Z,328.97
2022-11-29T15:40:27.454Z,107.00
2022-11-29T15:43:16.972Z,161.63
2022-11-29T15:46:03.942Z,51.80
2022-11-29T15:48:33.036Z,118.03
2022-11-29T15:51:31.926Z,192.27
2022-11-29T15:54:22.802Z,209.07
2022-11-29T15:57:11.068Z,142.13
2022-11-29T15:59:55.768Z,136.00
2022-11-29T16:02:40.255Z,83.03
2022-11-29T16:05:25.587Z,54.83
2022-11-29T16:08:04.236Z,24.77
2022-11-29T16:10:59.084Z,193.77
2022-11-29T16:13:47.217Z,174.90
2022-11-29T16:16:21.141Z,391.63
2022-11-29T16:19:01.138Z,229.27
2022-11-29T16:21:44.378Z,216.73
2022-11-29T16:24:28.156Z,125.80
2022-11-29T16:27:02.741Z,173.77
2022-11-29T16:29:41.139Z,267.23
2022-11-29T16:32:27.507Z,412.63
2022-11-29T16:35:04.217Z,587.10
2022-11-29T16:37:42.599Z,451.07
2022-11-29T16:40:38.087Z,516.37
2022-11-29T16:43:07.105Z,513.83
2022-11-29T16:45:45.277Z,328.53
2022-11-29T16:48:27.811Z,670.07
2022-11-29T16:51:17.118Z,670.17
2022-11-29T16:53:49.877Z,621.53
2022-11-29T16:56:29.610Z,588.50
2022-11-29T16:59:25.878Z,306.10
2022-11-29T17:01:55.614Z,505.27
2022-11-29T17:04:25.149Z,631.13
2022-11-29T17:06:56.353Z,655.13
2022-11-29T17:09:36.250Z,594.80
2022-11-29T17:12:03.889Z,517.60
2022-11-29T17:14:33.067Z,464.73
2022-11-29T17:17:20.153Z,611.23
2022-11-29T17:19:47.609Z,478.93
2022-11-29T17:22:14.995Z,522.13
2022-11-29T17:24:55.474Z,670.03
2022-11-29T17:27:22.901Z,387.40
2022-11-29T17:29:54.731Z,453.37
2022-11-29T17:32:28.810Z,542.57
2022-11-29T17:35:00.637Z,527.60
2022-11-29T17:37:29.988Z,801.03
2022-11-29T17:40:04.674Z,790.90
2022-11-29T17:42:32.474Z,786.00
2022-11-29T17:44:59.908Z,851.93
2022-11-29T17:47:33.695Z,655.43
2022-11-29T17:50:01.169Z,796.17
2022-11-29T17:52:28.507Z,653.37
2022-11-29T17:55:02.732Z,486.20
2022-11-29T17:57:30.102Z,701.07
2022-11-29T17:59:57.546Z,725.73
2022-11-29T18:02:41.887Z,654.40
2022-11-29T18:05:09.765Z,534.97
2022-11-29T18:08:04.449Z,574.87
2022-11-29T18:10:31.964Z,837.10
2022-11-29T18:13:03.990Z,772.87
2022-11-29T18:15:39.949Z,786.37
2022-11-29T18:18:07.432Z,410.73
2022-11-29T18:20:35.116Z,974.90
2022-11-29T18:23:09.024Z,938.00
2022-11-29T18:26:17.260Z,683.60
2022-11-29T18:28:52.243Z,463.40
2022-11-29T18:31:28.293Z,510.87
2022-11-29T18:34:05.539Z,372.53
2022-11-29T18:36:35.282Z,365.60
2022-11-29T18:39:13.461Z,438.00
2022-11-29T18:41:46.282Z,467.33
2022-11-29T18:44:21.493Z,579.87
2022-11-29T18:46:51.641Z,423.80
2022-11-29T18:49:19.568Z,361.93
2022-11-29T18:51:55.464Z,492.47
2022-11-29T18:54:25.253Z,645.03
2022-11-29T18:56:52.821Z,583.80
2022-11-29T18:59:28.391Z,538.60
2022-11-29T19:02:02.666Z,436.00
2022-11-29T19:04:32.254Z,322.83
2022-11-29T19:07:06.323Z,521.67
2022-11-29T19:09:33.691Z,555.03
2022-11-29T19:12:03.764Z,429.43
2022-11-29T19:14:48.103Z,413.63
2022-11-29T19:17:17.274Z,389.77
2022-11-29T19:19:51.694Z,326.50
2022-11-29T19:22:19.114Z,66.93
2022-11-29T19:25:01.705Z,282.43
2022-11-29T19:27:29.333Z,335.20
2022-11-29T19:29:57.104Z,487.10
2022-11-29T19:32:30.759Z,243.70
2022-11-29T19:34:58.218Z,206.40
2022-11-29T19:37:25.680Z,243.37
2022-11-29T19:39:59.685Z,193.63
2022-11-29T19:42:27.094Z,330.37
2022-11-29T19:47:50.754Z,1140.20
2022-11-29T19:50:18.311Z,929.43
2022-11-29T19:52:45.687Z,1072.30
2022-11-29T19:55:20.674Z,1241.10
2022-11-29T19:57:50.509Z,1671.90
2022-11-29T20:00:20.667Z,1627.93
2022-11-29T20:02:54.737Z,1696.00
2022-11-29T20:05:31.405Z,1567.93
2022-11-29T20:08:05.463Z,1768.63
2022-11-29T20:10:34.358Z,1681.40
2022-11-29T20:13:01.696Z,1577.20
2022-11-29T20:15:36.746Z,1460.07
2022-11-29T20:18:05.007Z,1999.90
2022-11-29T20:20:33.999Z,1313.93
2022-11-29T20:23:08.454Z,963.07
2022-11-29T20:25:46.477Z,824.30
2022-11-29T20:28:20.517Z,1116.47
2022-11-29T20:30:47.946Z,991.63
2022-11-29T20:33:31.417Z,683.07
2022-11-29T20:36:32.186Z,1065.53
2022-11-29T20:39:27.471Z,1184.10
2022-11-29T20:41:54.810Z,1365.13
2022-11-29T20:44:51.532Z,1281.33
2022-11-29T20:47:21.257Z,1170.50
2022-11-29T20:49:49.229Z,1046.90
2022-11-29T20:52:49.465Z,1605.50
2022-11-29T20:55:17.047Z,1193.40
2022-11-29T20:57:46.520Z,1586.43
2022-11-29T21:00:22.638Z,1925.03
2022-11-29T21:02:50.099Z,1952.53
2022-11-29T21:05:30.565Z,1284.00
2022-11-29T21:07:58.023Z,1731.63
2022-11-29T21:10:25.420Z,1661.17
2022-11-29T21:12:59.577Z,1425.37
2022-11-29T21:15:27.547Z,1394.73
2022-11-29T21:17:57.516Z,535.47
2022-11-29T21:20:33.337Z,771.73
2022-11-29T21:23:18.727Z,1045.10
2022-11-29T21:26:09.332Z,1379.80
2022-11-29T21:28:46.956Z,1326.40
2022-11-29T21:31:24.863Z,1496.07
2022-11-29T21:33:52.484Z,473.93
2022-11-29T21:36:20.027Z,318.13
2022-11-29T21:38:55.418Z,171.13
2022-11-29T21:41:23.487Z,191.23
2022-11-29T21:44:06.723Z,82.67
2022-11-29T21:46:41.735Z,34.17
2022-11-29T21:49:09.235Z,38.13
2022-11-29T21:51:36.641Z,36.40
2022-11-29T21:54:10.715Z,37.97
2022-11-29T21:56:38.109Z,35.93
2022-11-29T21:59:05.987Z,41.83
2022-11-29T22:01:40.823Z,18.73
2022-11-29T22:04:08.381Z,24.03
2022-11-29T22:06:36.959Z,24.60
2022-11-29T22:09:11.923Z,18.73
2022-11-29T22:11:39.665Z,17.80
2022-11-29T22:14:22.779Z,20.93
2022-11-29T22:16:51.639Z,19.87
2022-11-29T22:19:45.773Z,18.47
2022-11-29T22:22:13.371Z,16.57
2022-11-29T22:24:53.728Z,21.50
2022-11-29T22:27:21.374Z,18.67
2022-11-29T22:29:48.998Z,23.70
2022-11-29T22:32:22.723Z,21.17
2022-11-29T22:34:50.070Z,18.03
2022-11-29T22:37:22.446Z,18.13
2022-11-29T22:39:56.467Z,20.80
2022-11-29T22:42:23.827Z,18.33
2022-11-29T22:44:51.271Z,20.17
2022-11-29T22:47:25.482Z,20.30
2022-11-29T22:49:55.354Z,18.60
2022-11-29T22:52:29.603Z,20.17
2022-11-29T22:55:05.204Z,14.60
2022-11-29T22:57:32.792Z,17.57
2022-11-29T23:00:00.124Z,15.83
2022-11-29T23:02:35.799Z,15.27
2022-11-29T23:05:05.827Z,18.73
2022-11-29T23:07:35.577Z,20.10
2022-11-29T23:10:10.554Z,19.97
2022-11-29T23:12:37.889Z,18.77
2022-11-29T23:15:05.855Z,17.73
2022-11-29T23:17:39.662Z,20.13
2022-11-29T23:20:08.186Z,19.27
2022-11-29T23:22:39.300Z,19.27
2022-11-29T23:25:13.841Z,19.60
2022-11-29T23:27:42.221Z,24.23
2022-11-29T23:30:12.698Z,22.03
2022-11-29T23:32:50.753Z,25.67
2022-11-29T23:35:18.134Z,31.90
2022-11-29T23:37:45.566Z,39.70
2022-11-29T23:40:19.785Z,33.10
2022-11-29T23:42:54.641Z,42.73
2022-11-29T23:45:28.829Z,42.87
2022-11-29T23:47:56.302Z,85.77
2022-11-29T23:50:24.689Z,143.30
2022-11-29T23:53:01.756Z,46.13
2022-11-29T23:55:29.402Z,140.57
2022-11-29T23:57:56.759Z,62.73
